sensor_id;sensor_type;location;lat;lon;timestamp;P1;durP1;ratioP1;P2;durP2;ratioP2
54787;SDS011;59598;48.112;16.280;2023-03-01T00:00:42;23.30;;;8.73;;
54787;SDS011;59598;48.112;16.280;2023-03-01T00:03:17;19.27;;;9.73;;
54787;SDS011;59598;48.112;16.280;2023-03-01T00:05:52;21.77;;;9.95;;
54787;SDS011;59598;48.112;16.280;2023-03-01T00:08:26;17.30;;;8.88;;
54787;SDS011;59598;48.112;16.280;2023-03-01T00:13:52;24.05;;;10.25;;
54787;SDS011;59598;48.112;16.280;2023-03-01T00:16:32;21.20;;;9.43;;
54787;SDS011;59598;48.112;16.280;2023-03-01T00:19:13;17.75;;;9.57;;
54787;SDS011;59598;48.112;16.280;2023-03-01T00:21:49;20.98;;;9.95;;
54787;SDS011;59598;48.112;16.280;2023-03-01T00:24:23;18.70;;;9.88;;
54787;SDS011;59598;48.112;16.280;2023-03-01T00:26:57;17.65;;;10.82;;
54787;SDS011;59598;48.112;16.280;2023-03-01T00:29:29;19.60;;;9.55;;
54787;SDS011;59598;48.112;16.280;2023-03-01T00:32:00;26.85;;;10.35;;
54787;SDS011;59598;48.112;16.280;2023-03-01T00:34:37;19.88;;;10.88;;
54787;SDS011;59598;48.112;16.280;2023-03-01T00:37:08;21.42;;;10.95;;
54787;SDS011;59598;48.112;16.280;2023-03-01T00:39:40;23.63;;;10.40;;
54787;SDS011;59598;48.112;16.280;2023-03-01T00:44:46;25.98;;;10.05;;
54787;SDS011;59598;48.112;16.280;2023-03-01T00:47:23;20.07;;;10.47;;
54787;SDS011;59598;48.112;16.280;2023-03-01T00:49:59;16.55;;;9.65;;
54787;SDS011;59598;48.112;16.280;2023-03-01T00:52:34;17.30;;;9.98;;
54787;SDS011;59598;48.112;16.280;2023-03-01T00:55:08;16.90;;;9.45;;
54787;SDS011;59598;48.112;16.280;2023-03-01T00:57:40;24.17;;;11.75;;
54787;SDS011;59598;48.112;16.280;2023-03-01T01:00:12;20.23;;;10.95;;
54787;SDS011;59598;48.112;16.280;2023-03-01T01:03:03;21.33;;;10.35;;
54787;SDS011;59598;48.112;16.280;2023-03-01T01:08:09;16.90;;;8.88;;
54787;SDS011;59598;48.112;16.280;2023-03-01T01:10:45;20.38;;;9.60;;
54787;SDS011;59598;48.112;16.280;2023-03-01T01:13:22;19.25;;;9.18;;
54787;SDS011;59598;48.112;16.280;2023-03-01T01:16:00;22.60;;;11.40;;
54787;SDS011;59598;48.112;16.280;2023-03-01T01:18:35;23.88;;;10.77;;
54787;SDS011;59598;48.112;16.280;2023-03-01T01:21:09;20.70;;;11.23;;
54787;SDS011;59598;48.112;16.280;2023-03-01T01:23:45;20.33;;;11.27;;
54787;SDS011;59598;48.112;16.280;2023-03-01T01:26:30;21.10;;;11.57;;
54787;SDS011;59598;48.112;16.280;2023-03-01T01:29:04;25.90;;;11.65;;
54787;SDS011;59598;48.112;16.280;2023-03-01T01:31:37;24.85;;;11.13;;
54787;SDS011;59598;48.112;16.280;2023-03-01T01:34:19;22.27;;;11.00;;
54787;SDS011;59598;48.112;16.280;2023-03-01T01:36:52;22.48;;;11.27;;
54787;SDS011;59598;48.112;16.280;2023-03-01T01:39:34;18.50;;;10.63;;
54787;SDS011;59598;48.112;16.280;2023-03-01T01:42:06;20.20;;;10.88;;
54787;SDS011;59598;48.112;16.280;2023-03-01T01:45:15;27.65;;;11.90;;
54787;SDS011;59598;48.112;16.280;2023-03-01T01:48:10;23.23;;;12.00;;
54787;SDS011;59598;48.112;16.280;2023-03-01T01:50:53;20.40;;;10.93;;
54787;SDS011;59598;48.112;16.280;2023-03-01T01:53:31;21.95;;;11.88;;
54787;SDS011;59598;48.112;16.280;2023-03-01T01:56:03;25.63;;;11.05;;
54787;SDS011;59598;48.112;16.280;2023-03-01T01:58:37;20.80;;;10.88;;
54787;SDS011;59598;48.112;16.280;2023-03-01T02:01:13;22.25;;;10.52;;
54787;SDS011;59598;48.112;16.280;2023-03-01T02:03:47;22.48;;;11.45;;
54787;SDS011;59598;48.112;16.280;2023-03-01T02:06:30;18.90;;;10.93;;
54787;SDS011;59598;48.112;16.280;2023-03-01T02:09:06;18.30;;;10.43;;
54787;SDS011;59598;48.112;16.280;2023-03-01T02:11:44;22.30;;;11.57;;
54787;SDS011;59598;48.112;16.280;2023-03-01T02:14:16;21.15;;;11.05;;
54787;SDS011;59598;48.112;16.280;2023-03-01T02:16:57;19.25;;;10.60;;
54787;SDS011;59598;48.112;16.280;2023-03-01T02:19:38;23.77;;;11.30;;
54787;SDS011;59598;48.112;16.280;2023-03-01T02:22:30;22.05;;;11.30;;
54787;SDS011;59598;48.112;16.280;2023-03-01T02:30:49;22.60;;;10.98;;
54787;SDS011;59598;48.112;16.280;2023-03-01T02:33:41;21.38;;;10.60;;
54787;SDS011;59598;48.112;16.280;2023-03-01T02:36:20;20.48;;;10.10;;
54787;SDS011;59598;48.112;16.280;2023-03-01T02:38:58;22.50;;;11.15;;
54787;SDS011;59598;48.112;16.280;2023-03-01T02:41:37;20.90;;;11.13;;
54787;SDS011;59598;48.112;16.280;2023-03-01T02:44:13;24.02;;;12.20;;
54787;SDS011;59598;48.112;16.280;2023-03-01T02:49:30;21.52;;;10.45;;
54787;SDS011;59598;48.112;16.280;2023-03-01T02:55:06;22.35;;;11.05;;
54787;SDS011;59598;48.112;16.280;2023-03-01T02:57:44;21.70;;;10.57;;
54787;SDS011;59598;48.112;16.280;2023-03-01T03:00:28;18.88;;;9.93;;
54787;SDS011;59598;48.112;16.280;2023-03-01T03:03:06;23.15;;;9.85;;
54787;SDS011;59598;48.112;16.280;2023-03-01T03:05:44;19.17;;;10.27;;
54787;SDS011;59598;48.112;16.280;2023-03-01T03:08:18;19.58;;;10.70;;
54787;SDS011;59598;48.112;16.280;2023-03-01T03:10:54;20.75;;;11.30;;
54787;SDS011;59598;48.112;16.280;2023-03-01T03:13:26;21.58;;;11.00;;
54787;SDS011;59598;48.112;16.280;2023-03-01T03:16:02;21.58;;;11.45;;
54787;SDS011;59598;48.112;16.280;2023-03-01T03:18:35;21.98;;;11.13;;
54787;SDS011;59598;48.112;16.280;2023-03-01T03:21:09;16.50;;;9.23;;
54787;SDS011;59598;48.112;16.280;2023-03-01T03:23:43;20.23;;;11.52;;
54787;SDS011;59598;48.112;16.280;2023-03-01T03:26:17;22.30;;;11.55;;
54787;SDS011;59598;48.112;16.280;2023-03-01T03:28:48;23.35;;;11.60;;
54787;SDS011;59598;48.112;16.280;2023-03-01T03:31:20;22.58;;;10.32;;
54787;SDS011;59598;48.112;16.280;2023-03-01T03:33:53;23.80;;;11.20;;
54787;SDS011;59598;48.112;16.280;2023-03-01T03:36:26;24.60;;;11.48;;
54787;SDS011;59598;48.112;16.280;2023-03-01T03:38:58;20.35;;;11.23;;
54787;SDS011;59598;48.112;16.280;2023-03-01T03:41:29;16.40;;;9.82;;
54787;SDS011;59598;48.112;16.280;2023-03-01T03:44:04;21.33;;;10.18;;
54787;SDS011;59598;48.112;16.280;2023-03-01T03:46:36;25.55;;;11.75;;
54787;SDS011;59598;48.112;16.280;2023-03-01T03:49:14;26.52;;;11.30;;
54787;SDS011;59598;48.112;16.280;2023-03-01T03:51:45;24.60;;;12.15;;
54787;SDS011;59598;48.112;16.280;2023-03-01T03:54:17;23.92;;;11.38;;
54787;SDS011;59598;48.112;16.280;2023-03-01T03:56:48;21.27;;;11.27;;
54787;SDS011;59598;48.112;16.280;2023-03-01T03:59:22;18.80;;;10.80;;
54787;SDS011;59598;48.112;16.280;2023-03-01T04:01:58;24.88;;;11.50;;
54787;SDS011;59598;48.112;16.280;2023-03-01T04:04:34;21.98;;;11.15;;
54787;SDS011;59598;48.112;16.280;2023-03-01T04:07:07;22.25;;;11.40;;
54787;SDS011;59598;48.112;16.280;2023-03-01T04:09:47;24.48;;;12.30;;
54787;SDS011;59598;48.112;16.280;2023-03-01T04:12:21;21.52;;;11.52;;
54787;SDS011;59598;48.112;16.280;2023-03-01T04:14:54;26.08;;;12.50;;
54787;SDS011;59598;48.112;16.280;2023-03-01T04:17:26;22.90;;;13.05;;
54787;SDS011;59598;48.112;16.280;2023-03-01T04:19:58;18.00;;;10.15;;
54787;SDS011;59598;48.112;16.280;2023-03-01T04:22:29;23.55;;;12.20;;
54787;SDS011;59598;48.112;16.280;2023-03-01T04:25:08;25.15;;;12.00;;
54787;SDS011;59598;48.112;16.280;2023-03-01T04:27:44;24.13;;;12.40;;
54787;SDS011;59598;48.112;16.280;2023-03-01T04:30:19;22.48;;;12.30;;
54787;SDS011;59598;48.112;16.280;2023-03-01T04:32:56;24.33;;;12.80;;
54787;SDS011;59598;48.112;16.280;2023-03-01T04:35:27;23.88;;;11.95;;
54787;SDS011;59598;48.112;16.280;2023-03-01T04:38:04;23.35;;;11.77;;
54787;SDS011;59598;48.112;16.280;2023-03-01T04:40:38;25.38;;;11.65;;
54787;SDS011;59598;48.112;16.280;2023-03-01T04:43:10;26.48;;;12.57;;
54787;SDS011;59598;48.112;16.280;2023-03-01T04:45:45;28.75;;;13.38;;
54787;SDS011;59598;48.112;16.280;2023-03-01T04:48:21;27.85;;;13.27;;
54787;SDS011;59598;48.112;16.280;2023-03-01T04:50:53;23.63;;;12.25;;
54787;SDS011;59598;48.112;16.280;2023-03-01T04:53:27;24.95;;;12.35;;
54787;SDS011;59598;48.112;16.280;2023-03-01T04:56:03;25.52;;;12.60;;
54787;SDS011;59598;48.112;16.280;2023-03-01T04:58:38;34.38;;;16.05;;
54787;SDS011;59598;48.112;16.280;2023-03-01T05:01:17;34.17;;;16.92;;
54787;SDS011;59598;48.112;16.280;2023-03-01T05:03:52;29.35;;;14.50;;
54787;SDS011;59598;48.112;16.280;2023-03-01T05:06:23;27.00;;;13.57;;
54787;SDS011;59598;48.112;16.280;2023-03-01T05:09:00;26.33;;;13.93;;
54787;SDS011;59598;48.112;16.280;2023-03-01T05:11:37;28.25;;;13.23;;
54787;SDS011;59598;48.112;16.280;2023-03-01T05:14:15;25.48;;;12.55;;
54787;SDS011;59598;48.112;16.280;2023-03-01T05:19:20;25.80;;;12.45;;
54787;SDS011;59598;48.112;16.280;2023-03-01T05:21:53;24.80;;;12.48;;
54787;SDS011;59598;48.112;16.280;2023-03-01T05:24:36;22.33;;;12.03;;
54787;SDS011;59598;48.112;16.280;2023-03-01T05:27:11;23.27;;;13.55;;
54787;SDS011;59598;48.112;16.280;2023-03-01T05:29:48;24.77;;;13.85;;
54787;SDS011;59598;48.112;16.280;2023-03-01T05:32:22;25.13;;;13.60;;
54787;SDS011;59598;48.112;16.280;2023-03-01T05:34:54;26.17;;;12.20;;
54787;SDS011;59598;48.112;16.280;2023-03-01T05:37:25;28.92;;;12.90;;
54787;SDS011;59598;48.112;16.280;2023-03-01T05:40:02;25.60;;;13.45;;
54787;SDS011;59598;48.112;16.280;2023-03-01T05:42:35;32.25;;;12.73;;
54787;SDS011;59598;48.112;16.280;2023-03-01T05:45:09;26.45;;;12.95;;
54787;SDS011;59598;48.112;16.280;2023-03-01T05:47:44;21.50;;;11.77;;
54787;SDS011;59598;48.112;16.280;2023-03-01T05:50:25;21.15;;;12.45;;
54787;SDS011;59598;48.112;16.280;2023-03-01T05:53:09;24.58;;;12.82;;
54787;SDS011;59598;48.112;16.280;2023-03-01T05:55:43;28.52;;;12.93;;
54787;SDS011;59598;48.112;16.280;2023-03-01T05:58:19;24.00;;;13.85;;
54787;SDS011;59598;48.112;16.280;2023-03-01T06:00:50;24.25;;;13.48;;
54787;SDS011;59598;48.112;16.280;2023-03-01T06:03:22;26.35;;;13.20;;
54787;SDS011;59598;48.112;16.280;2023-03-01T06:05:57;25.20;;;13.30;;
54787;SDS011;59598;48.112;16.280;2023-03-01T06:08:37;26.15;;;13.57;;
54787;SDS011;59598;48.112;16.280;2023-03-01T06:11:16;30.52;;;13.35;;
54787;SDS011;59598;48.112;16.280;2023-03-01T06:13:51;27.05;;;13.57;;
54787;SDS011;59598;48.112;16.280;2023-03-01T06:16:22;25.67;;;14.10;;
54787;SDS011;59598;48.112;16.280;2023-03-01T06:19:00;28.17;;;13.98;;
54787;SDS011;59598;48.112;16.280;2023-03-01T06:21:31;28.90;;;13.52;;
54787;SDS011;59598;48.112;16.280;2023-03-01T06:24:03;29.92;;;15.10;;
54787;SDS011;59598;48.112;16.280;2023-03-01T06:29:12;26.23;;;13.50;;
54787;SDS011;59598;48.112;16.280;2023-03-01T06:31:46;21.80;;;11.02;;
54787;SDS011;59598;48.112;16.280;2023-03-01T06:34:20;29.35;;;13.57;;
54787;SDS011;59598;48.112;16.280;2023-03-01T06:36:55;24.35;;;13.23;;
54787;SDS011;59598;48.112;16.280;2023-03-01T06:39:29;25.35;;;13.30;;
54787;SDS011;59598;48.112;16.280;2023-03-01T06:42:02;27.25;;;14.05;;
54787;SDS011;59598;48.112;16.280;2023-03-01T06:44:34;25.45;;;13.70;;
54787;SDS011;59598;48.112;16.280;2023-03-01T06:47:05;25.42;;;13.27;;
54787;SDS011;59598;48.112;16.280;2023-03-01T06:49:37;29.63;;;13.60;;
54787;SDS011;59598;48.112;16.280;2023-03-01T06:52:08;29.20;;;13.93;;
54787;SDS011;59598;48.112;16.280;2023-03-01T06:54:45;30.30;;;14.10;;
54787;SDS011;59598;48.112;16.280;2023-03-01T06:57:18;28.95;;;14.45;;
54787;SDS011;59598;48.112;16.280;2023-03-01T06:59:49;24.77;;;14.90;;
54787;SDS011;59598;48.112;16.280;2023-03-01T07:02:24;27.48;;;14.65;;
54787;SDS011;59598;48.112;16.280;2023-03-01T07:04:57;27.88;;;14.88;;
54787;SDS011;59598;48.112;16.280;2023-03-01T07:07:33;32.25;;;14.35;;
54787;SDS011;59598;48.112;16.280;2023-03-01T07:10:05;25.65;;;14.88;;
54787;SDS011;59598;48.112;16.280;2023-03-01T07:12:38;29.42;;;15.00;;
54787;SDS011;59598;48.112;16.280;2023-03-01T07:15:12;23.98;;;13.75;;
54787;SDS011;59598;48.112;16.280;2023-03-01T07:18:06;33.55;;;14.70;;
54787;SDS011;59598;48.112;16.280;2023-03-01T07:20:57;25.83;;;14.23;;
54787;SDS011;59598;48.112;16.280;2023-03-01T07:23:40;31.17;;;15.15;;
54787;SDS011;59598;48.112;16.280;2023-03-01T07:26:12;26.80;;;14.07;;
54787;SDS011;59598;48.112;16.280;2023-03-01T07:28:43;29.50;;;13.65;;
54787;SDS011;59598;48.112;16.280;2023-03-01T07:31:15;26.92;;;14.50;;
54787;SDS011;59598;48.112;16.280;2023-03-01T07:33:50;36.85;;;14.48;;
54787;SDS011;59598;48.112;16.280;2023-03-01T07:36:24;28.33;;;14.68;;
54787;SDS011;59598;48.112;16.280;2023-03-01T07:38:55;29.85;;;14.30;;
54787;SDS011;59598;48.112;16.280;2023-03-01T07:41:28;27.30;;;14.48;;
54787;SDS011;59598;48.112;16.280;2023-03-01T07:44:03;23.92;;;14.30;;
54787;SDS011;59598;48.112;16.280;2023-03-01T07:46:39;30.13;;;15.20;;
54787;SDS011;59598;48.112;16.280;2023-03-01T07:49:14;27.33;;;15.05;;
54787;SDS011;59598;48.112;16.280;2023-03-01T07:51:48;30.42;;;15.32;;
54787;SDS011;59598;48.112;16.280;2023-03-01T07:54:19;29.80;;;13.98;;
54787;SDS011;59598;48.112;16.280;2023-03-01T07:56:50;23.75;;;13.98;;
54787;SDS011;59598;48.112;16.280;2023-03-01T07:59:22;25.48;;;13.48;;
54787;SDS011;59598;48.112;16.280;2023-03-01T08:01:59;26.92;;;14.63;;
54787;SDS011;59598;48.112;16.280;2023-03-01T08:04:31;36.95;;;15.55;;
54787;SDS011;59598;48.112;16.280;2023-03-01T08:07:04;31.20;;;15.40;;
54787;SDS011;59598;48.112;16.280;2023-03-01T08:09:38;28.50;;;14.95;;
54787;SDS011;59598;48.112;16.280;2023-03-01T08:12:10;27.75;;;16.05;;
54787;SDS011;59598;48.112;16.280;2023-03-01T08:14:47;33.50;;;14.50;;
54787;SDS011;59598;48.112;16.280;2023-03-01T08:17:18;31.42;;;14.18;;
54787;SDS011;59598;48.112;16.280;2023-03-01T08:19:50;29.05;;;15.65;;
54787;SDS011;59598;48.112;16.280;2023-03-01T08:24:59;21.37;;;13.77;;
54787;SDS011;59598;48.112;16.280;2023-03-01T08:27:30;31.13;;;15.40;;
54787;SDS011;59598;48.112;16.280;2023-03-01T08:30:02;26.80;;;14.15;;
54787;SDS011;59598;48.112;16.280;2023-03-01T08:32:38;24.75;;;13.45;;
54787;SDS011;59598;48.112;16.280;2023-03-01T08:35:14;27.08;;;14.60;;
54787;SDS011;59598;48.112;16.280;2023-03-01T08:37:51;29.15;;;15.43;;
54787;SDS011;59598;48.112;16.280;2023-03-01T08:40:24;31.60;;;15.07;;
54787;SDS011;59598;48.112;16.280;2023-03-01T08:42:57;37.42;;;16.52;;
54787;SDS011;59598;48.112;16.280;2023-03-01T08:45:34;32.63;;;14.90;;
54787;SDS011;59598;48.112;16.280;2023-03-01T08:48:11;33.28;;;17.35;;
54787;SDS011;59598;48.112;16.280;2023-03-01T08:50:42;30.52;;;15.57;;
54787;SDS011;59598;48.112;16.280;2023-03-01T08:53:16;25.23;;;14.43;;
54787;SDS011;59598;48.112;16.280;2023-03-01T08:55:48;27.02;;;14.10;;
54787;SDS011;59598;48.112;16.280;2023-03-01T08:58:21;31.58;;;17.08;;
54787;SDS011;59598;48.112;16.280;2023-03-01T09:00:52;32.25;;;16.30;;
54787;SDS011;59598;48.112;16.280;2023-03-01T09:03:27;27.15;;;14.52;;
54787;SDS011;59598;48.112;16.280;2023-03-01T09:06:01;27.38;;;14.25;;
54787;SDS011;59598;48.112;16.280;2023-03-01T09:08:43;30.67;;;14.60;;
54787;SDS011;59598;48.112;16.280;2023-03-01T09:11:18;29.10;;;15.32;;
54787;SDS011;59598;48.112;16.280;2023-03-01T09:13:56;25.45;;;14.80;;
54787;SDS011;59598;48.112;16.280;2023-03-01T09:16:38;28.45;;;13.45;;
54787;SDS011;59598;48.112;16.280;2023-03-01T09:19:12;25.52;;;14.48;;
54787;SDS011;59598;48.112;16.280;2023-03-01T09:21:44;21.40;;;12.18;;
54787;SDS011;59598;48.112;16.280;2023-03-01T09:24:23;28.30;;;14.80;;
54787;SDS011;59598;48.112;16.280;2023-03-01T09:26:55;22.42;;;12.10;;
54787;SDS011;59598;48.112;16.280;2023-03-01T09:29:27;22.38;;;13.02;;
54787;SDS011;59598;48.112;16.280;2023-03-01T09:32:00;26.63;;;13.25;;
54787;SDS011;59598;48.112;16.280;2023-03-01T09:34:34;21.58;;;12.73;;
54787;SDS011;59598;48.112;16.280;2023-03-01T09:37:27;24.73;;;12.50;;
54787;SDS011;59598;48.112;16.280;2023-03-01T09:39:59;23.90;;;11.70;;
54787;SDS011;59598;48.112;16.280;2023-03-01T09:46:04;25.42;;;12.48;;
54787;SDS011;59598;48.112;16.280;2023-03-01T09:49:19;23.83;;;11.98;;
54787;SDS011;59598;48.112;16.280;2023-03-01T09:52:27;22.23;;;11.57;;
54787;SDS011;59598;48.112;16.280;2023-03-01T10:08:56;22.55;;;12.02;;
54787;SDS011;59598;48.112;16.280;2023-03-01T10:12:18;21.58;;;12.07;;
54787;SDS011;59598;48.112;16.280;2023-03-01T10:15:33;20.02;;;11.63;;
54787;SDS011;59598;48.112;16.280;2023-03-01T10:18:39;17.67;;;11.57;;
54787;SDS011;59598;48.112;16.280;2023-03-01T10:21:36;17.05;;;10.18;;
54787;SDS011;59598;48.112;16.280;2023-03-01T10:24:19;20.60;;;10.50;;
54787;SDS011;59598;48.112;16.280;2023-03-01T10:27:03;20.45;;;11.18;;
54787;SDS011;59598;48.112;16.280;2023-03-01T10:30:06;20.70;;;12.07;;
54787;SDS011;59598;48.112;16.280;2023-03-01T10:33:18;18.95;;;9.95;;
54787;SDS011;59598;48.112;16.280;2023-03-01T10:35:54;16.38;;;10.65;;
54787;SDS011;59598;48.112;16.280;2023-03-01T10:38:31;18.60;;;12.27;;
54787;SDS011;59598;48.112;16.280;2023-03-01T10:41:25;19.90;;;11.20;;
54787;SDS011;59598;48.112;16.280;2023-03-01T10:44:03;20.90;;;10.43;;
54787;SDS011;59598;48.112;16.280;2023-03-01T10:46:38;20.90;;;11.75;;
54787;SDS011;59598;48.112;16.280;2023-03-01T10:49:18;22.67;;;11.80;;
54787;SDS011;59598;48.112;16.280;2023-03-01T10:51:56;21.83;;;12.32;;
54787;SDS011;59598;48.112;16.280;2023-03-01T10:54:59;19.83;;;10.88;;
54787;SDS011;59598;48.112;16.280;2023-03-01T10:57:53;21.35;;;11.32;;
54787;SDS011;59598;48.112;16.280;2023-03-01T11:01:00;18.95;;;10.30;;
54787;SDS011;59598;48.112;16.280;2023-03-01T11:03:38;19.45;;;12.15;;
54787;SDS011;59598;48.112;16.280;2023-03-01T11:08:53;20.92;;;12.50;;
54787;SDS011;59598;48.112;16.280;2023-03-01T11:11:31;20.92;;;11.73;;
54787;SDS011;59598;48.112;16.280;2023-03-01T11:17:03;21.92;;;11.65;;
54787;SDS011;59598;48.112;16.280;2023-03-01T11:20:33;18.77;;;11.32;;
54787;SDS011;59598;48.112;16.280;2023-03-01T11:23:05;18.60;;;11.20;;
54787;SDS011;59598;48.112;16.280;2023-03-01T11:25:46;17.10;;;10.27;;
54787;SDS011;59598;48.112;16.280;2023-03-01T11:28:31;17.83;;;10.45;;
54787;SDS011;59598;48.112;16.280;2023-03-01T11:31:14;23.75;;;11.70;;
54787;SDS011;59598;48.112;16.280;2023-03-01T11:36:46;19.63;;;11.67;;
54787;SDS011;59598;48.112;16.280;2023-03-01T11:39:39;15.33;;;9.73;;
54787;SDS011;59598;48.112;16.280;2023-03-01T11:42:31;15.80;;;11.13;;
54787;SDS011;59598;48.112;16.280;2023-03-01T11:45:16;19.15;;;11.20;;
54787;SDS011;59598;48.112;16.280;2023-03-01T11:48:06;15.73;;;10.32;;
54787;SDS011;59598;48.112;16.280;2023-03-01T11:51:15;16.30;;;10.60;;
54787;SDS011;59598;48.112;16.280;2023-03-01T11:54:04;20.20;;;10.80;;
54787;SDS011;59598;48.112;16.280;2023-03-01T11:57:00;18.00;;;10.75;;
54787;SDS011;59598;48.112;16.280;2023-03-01T12:09:17;19.35;;;11.48;;
54787;SDS011;59598;48.112;16.280;2023-03-01T12:12:20;22.05;;;11.63;;
54787;SDS011;59598;48.112;16.280;2023-03-01T12:15:22;18.33;;;10.90;;
54787;SDS011;59598;48.112;16.280;2023-03-01T12:21:20;18.95;;;10.45;;
54787;SDS011;59598;48.112;16.280;2023-03-01T12:24:33;17.35;;;10.88;;
54787;SDS011;59598;48.112;16.280;2023-03-01T12:27:47;20.88;;;10.95;;
54787;SDS011;59598;48.112;16.280;2023-03-01T12:30:37;18.77;;;11.15;;
54787;SDS011;59598;48.112;16.280;2023-03-01T12:33:49;18.50;;;10.70;;
54787;SDS011;59598;48.112;16.280;2023-03-01T12:36:59;17.45;;;11.80;;
54787;SDS011;59598;48.112;16.280;2023-03-01T12:49:10;20.02;;;11.77;;
54787;SDS011;59598;48.112;16.280;2023-03-01T12:52:08;17.30;;;11.13;;
54787;SDS011;59598;48.112;16.280;2023-03-01T13:03:52;18.48;;;11.05;;
54787;SDS011;59598;48.112;16.280;2023-03-01T13:06:47;16.05;;;10.43;;
54787;SDS011;59598;48.112;16.280;2023-03-01T13:09:35;20.02;;;12.07;;
54787;SDS011;59598;48.112;16.280;2023-03-01T13:12:47;22.02;;;12.43;;
54787;SDS011;59598;48.112;16.280;2023-03-01T13:15:27;18.23;;;12.13;;
54787;SDS011;59598;48.112;16.280;2023-03-01T13:23:31;18.02;;;10.82;;
54787;SDS011;59598;48.112;16.280;2023-03-01T13:28:50;17.15;;;10.38;;
54787;SDS011;59598;48.112;16.280;2023-03-01T13:34:02;22.13;;;10.52;;
54787;SDS011;59598;48.112;16.280;2023-03-01T13:37:21;17.65;;;10.60;;
54787;SDS011;59598;48.112;16.280;2023-03-01T13:42:54;21.98;;;11.63;;
54787;SDS011;59598;48.112;16.280;2023-03-01T13:46:07;17.17;;;11.30;;
54787;SDS011;59598;48.112;16.280;2023-03-01T13:48:47;18.75;;;11.77;;
54787;SDS011;59598;48.112;16.280;2023-03-01T13:51:25;18.58;;;11.02;;
54787;SDS011;59598;48.112;16.280;2023-03-01T13:53:58;15.73;;;10.57;;
54787;SDS011;59598;48.112;16.280;2023-03-01T13:56:35;17.48;;;11.20;;
54787;SDS011;59598;48.112;16.280;2023-03-01T13:59:15;19.02;;;10.73;;
54787;SDS011;59598;48.112;16.280;2023-03-01T14:01:57;16.05;;;10.07;;
54787;SDS011;59598;48.112;16.280;2023-03-01T14:04:32;15.95;;;9.32;;
54787;SDS011;59598;48.112;16.280;2023-03-01T14:07:21;17.55;;;9.88;;
54787;SDS011;59598;48.112;16.280;2023-03-01T14:10:01;20.00;;;10.90;;
54787;SDS011;59598;48.112;16.280;2023-03-01T14:20:57;18.80;;;11.30;;
54787;SDS011;59598;48.112;16.280;2023-03-01T14:23:39;18.02;;;10.35;;
54787;SDS011;59598;48.112;16.280;2023-03-01T14:26:14;18.30;;;10.07;;
54787;SDS011;59598;48.112;16.280;2023-03-01T14:28:52;15.98;;;9.07;;
54787;SDS011;59598;48.112;16.280;2023-03-01T14:31:35;18.08;;;9.10;;
54787;SDS011;59598;48.112;16.280;2023-03-01T14:34:18;18.58;;;10.70;;
54787;SDS011;59598;48.112;16.280;2023-03-01T14:36:54;17.05;;;11.02;;
54787;SDS011;59598;48.112;16.280;2023-03-01T14:39:41;17.58;;;10.43;;
54787;SDS011;59598;48.112;16.280;2023-03-01T14:42:14;18.05;;;10.45;;
54787;SDS011;59598;48.112;16.280;2023-03-01T14:44:51;16.27;;;9.48;;
54787;SDS011;59598;48.112;16.280;2023-03-01T14:47:32;18.38;;;10.40;;
54787;SDS011;59598;48.112;16.280;2023-03-01T14:55:40;14.50;;;9.65;;
54787;SDS011;59598;48.112;16.280;2023-03-01T14:58:23;17.35;;;9.90;;
54787;SDS011;59598;48.112;16.280;2023-03-01T15:00:59;15.35;;;9.60;;
54787;SDS011;59598;48.112;16.280;2023-03-01T15:06:14;13.75;;;9.13;;
54787;SDS011;59598;48.112;16.280;2023-03-01T15:08:51;15.48;;;9.55;;
54787;SDS011;59598;48.112;16.280;2023-03-01T15:11:28;16.45;;;9.68;;
54787;SDS011;59598;48.112;16.280;2023-03-01T15:14:08;14.57;;;10.00;;
54787;SDS011;59598;48.112;16.280;2023-03-01T15:20:06;16.60;;;10.05;;
54787;SDS011;59598;48.112;16.280;2023-03-01T15:22:56;15.20;;;8.88;;
54787;SDS011;59598;48.112;16.280;2023-03-01T15:25:28;16.77;;;8.98;;
54787;SDS011;59598;48.112;16.280;2023-03-01T15:28:12;14.20;;;9.38;;
54787;SDS011;59598;48.112;16.280;2023-03-01T15:31:19;14.75;;;9.60;;
54787;SDS011;59598;48.112;16.280;2023-03-01T15:37:01;16.80;;;10.27;;
54787;SDS011;59598;48.112;16.280;2023-03-01T15:39:42;20.15;;;11.00;;
54787;SDS011;59598;48.112;16.280;2023-03-01T15:45:08;16.75;;;10.48;;
54787;SDS011;59598;48.112;16.280;2023-03-01T15:47:52;17.40;;;11.15;;
54787;SDS011;59598;48.112;16.280;2023-03-01T15:50:29;20.27;;;10.60;;
54787;SDS011;59598;48.112;16.280;2023-03-01T15:53:04;18.80;;;10.27;;
54787;SDS011;59598;48.112;16.280;2023-03-01T15:55:42;18.42;;;9.77;;
54787;SDS011;59598;48.112;16.280;2023-03-01T15:58:20;20.88;;;10.65;;
54787;SDS011;59598;48.112;16.280;2023-03-01T16:00:55;19.17;;;11.23;;
54787;SDS011;59598;48.112;16.280;2023-03-01T16:03:27;18.83;;;12.02;;
54787;SDS011;59598;48.112;16.280;2023-03-01T16:06:02;15.73;;;10.35;;
54787;SDS011;59598;48.112;16.280;2023-03-01T16:11:16;17.88;;;10.90;;
54787;SDS011;59598;48.112;16.280;2023-03-01T16:13:50;18.88;;;10.93;;
54787;SDS011;59598;48.112;16.280;2023-03-01T16:16:29;21.33;;;12.25;;
54787;SDS011;59598;48.112;16.280;2023-03-01T16:19:00;22.38;;;12.90;;
54787;SDS011;59598;48.112;16.280;2023-03-01T16:21:33;19.40;;;11.85;;
54787;SDS011;59598;48.112;16.280;2023-03-01T16:24:05;21.88;;;11.90;;
54787;SDS011;59598;48.112;16.280;2023-03-01T16:26:40;20.55;;;11.32;;
54787;SDS011;59598;48.112;16.280;2023-03-01T16:29:17;20.60;;;12.25;;
54787;SDS011;59598;48.112;16.280;2023-03-01T16:31:51;20.60;;;11.70;;
54787;SDS011;59598;48.112;16.280;2023-03-01T16:34:42;20.20;;;11.57;;
54787;SDS011;59598;48.112;16.280;2023-03-01T16:37:14;22.17;;;12.02;;
54787;SDS011;59598;48.112;16.280;2023-03-01T16:39:46;25.73;;;11.98;;
54787;SDS011;59598;48.112;16.280;2023-03-01T16:42:21;21.02;;;12.00;;
54787;SDS011;59598;48.112;16.280;2023-03-01T16:44:56;21.77;;;11.63;;
54787;SDS011;59598;48.112;16.280;2023-03-01T16:47:28;24.60;;;12.05;;
54787;SDS011;59598;48.112;16.280;2023-03-01T16:50:00;23.35;;;11.98;;
54787;SDS011;59598;48.112;16.280;2023-03-01T16:52:34;20.80;;;11.63;;
54787;SDS011;59598;48.112;16.280;2023-03-01T16:55:06;19.10;;;12.10;;
54787;SDS011;59598;48.112;16.280;2023-03-01T16:57:40;19.55;;;12.57;;
54787;SDS011;59598;48.112;16.280;2023-03-01T17:00:14;22.73;;;13.40;;
54787;SDS011;59598;48.112;16.280;2023-03-01T17:02:53;18.67;;;10.90;;
54787;SDS011;59598;48.112;16.280;2023-03-01T17:05:30;24.20;;;13.10;;
54787;SDS011;59598;48.112;16.280;2023-03-01T17:08:10;23.10;;;12.38;;
54787;SDS011;59598;48.112;16.280;2023-03-01T17:10:42;21.08;;;12.18;;
54787;SDS011;59598;48.112;16.280;2023-03-01T17:13:13;20.63;;;11.90;;
54787;SDS011;59598;48.112;16.280;2023-03-01T17:15:48;17.77;;;11.45;;
54787;SDS011;59598;48.112;16.280;2023-03-01T17:18:22;19.10;;;11.50;;
54787;SDS011;59598;48.112;16.280;2023-03-01T17:20:55;22.15;;;12.20;;
54787;SDS011;59598;48.112;16.280;2023-03-01T17:23:32;23.30;;;12.07;;